Time;durP1;ratioP1;P1;durP2;ratioP2;P2;SDS_P1;SDS_P2;PMS_P1;PMS_P2;Temp;Humidity;BMP_temperature;BMP_pressure;BME280_temperature;BME280_humidity;BME280_pressure;Samples;Min_cycle;Max_cycle;Signal;HPM_P1;HPM_P2
2021/01/27 00:01:12;;;;;;;21.45;12.60;;;1.40;82.50;;;;;;5074770;28;20384;-67
2021/01/27 00:03:37;;;;;;;18.98;11.95;;;1.30;82.30;;;;;;5084436;28;20382;-67
2021/01/27 00:06:03;;;;;;;19.98;12.52;;;1.40;82.50;;;;;;5082258;28;20035;-66
2021/01/27 00:08:29;;;;;;;21.25;12.63;;;1.40;81.90;;;;;;5070218;28;20024;-68
2021/01/27 00:10:54;;;;;;;25.58;14.00;;;1.40;81.90;;;;;;5070811;28;20020;-67
2021/01/27 00:13:20;;;;;;;19.70;11.75;;;1.30;82.30;;;;;;5073339;28;20542;-67
2021/01/27 00:15:47;;;;;;;18.02;11.48;;;1.30;81.80;;;;;;5070286;28;20026;-66
2021/01/27 00:18:15;;;;;;;21.10;11.43;;;1.30;82.00;;;;;;5078620;28;20028;-67
2021/01/27 00:20:41;;;;;;;20.08;12.32;;;1.20;82.10;;;;;;5075761;28;20024;-66
2021/01/27 00:23:07;;;;;;;20.10;11.75;;;1.20;82.10;;;;;;5072360;28;20519;-66
2021/01/27 00:25:34;;;;;;;19.77;11.93;;;1.10;82.30;;;;;;5084898;28;20528;-65
2021/01/27 00:28:00;;;;;;;18.75;11.93;;;1.10;82.80;;;;;;5080519;28;20074;-65
2021/01/27 00:30:29;;;;;;;19.88;11.55;;;1.10;82.80;;;;;;5077270;28;20025;-67
2021/01/27 00:32:55;;;;;;;20.25;11.60;;;1.20;82.20;;;;;;5072236;28;20183;-67
2021/01/27 00:35:30;;;;;;;19.35;11.27;;;1.10;82.10;;;;;;5065968;28;20024;-68
2021/01/27 00:37:58;;;;;;;20.48;12.20;;;1.10;82.30;;;;;;5075251;28;20043;-68
2021/01/27 00:40:24;;;;;;;19.33;12.32;;;1.10;82.30;;;;;;5071060;28;20044;-68
2021/01/27 00:42:52;;;;;;;20.40;10.90;;;1.10;82.70;;;;;;5088981;28;20024;-68
2021/01/27 00:45:19;;;;;;;23.33;12.63;;;1.00;82.60;;;;;;5077236;28;20103;-66
2021/01/27 00:47:45;;;;;;;17.73;11.35;;;0.90;82.50;;;;;;5084037;28;20036;-67
2021/01/27 00:50:12;;;;;;;22.20;13.32;;;0.80;82.70;;;;;;5084551;28;20389;-66
2021/01/27 00:52:38;;;;;;;16.33;10.52;;;0.80;83.00;;;;;;5077247;28;20039;-66
2021/01/27 00:55:26;;;;;;;18.10;12.00;;;0.80;82.80;;;;;;5089562;28;20036;-66
2021/01/27 00:57:52;;;;;;;17.52;11.00;;;0.80;82.40;;;;;;5074957;28;20367;-66
2021/01/27 01:00:21;;;;;;;17.02;11.60;;;0.80;82.40;;;;;;5082185;28;20040;-66
2021/01/27 01:02:46;;;;;;;19.13;11.35;;;0.70;82.70;;;;;;5092366;28;20031;-67
2021/01/27 01:05:15;;;;;;;23.65;12.50;;;0.70;82.90;;;;;;5079126;28;20032;-66
2021/01/27 01:07:46;;;;;;;22.38;12.48;;;0.80;83.00;;;;;;5087505;28;20056;-67
2021/01/27 01:10:23;;;;;;;17.13;10.52;;;0.70;82.90;;;;;;5087014;28;20026;-66
2021/01/27 01:12:49;;;;;;;20.48;11.25;;;0.70;82.60;;;;;;5078507;28;20078;-66
2021/01/27 01:15:15;;;;;;;23.05;11.88;;;0.60;82.70;;;;;;5091085;28;20029;-66
2021/01/27 01:17:41;;;;;;;22.73;12.23;;;0.60;83.20;;;;;;5082445;28;20039;-66
2021/01/27 01:20:13;;;;;;;19.55;11.13;;;0.60;83.70;;;;;;5086402;28;20138;-64
2021/01/27 01:22:40;;;;;;;20.17;10.82;;;0.70;83.30;;;;;;5077204;28;20115;-68
2021/01/27 01:25:06;;;;;;;18.08;11.32;;;0.70;82.90;;;;;;5078444;28;20557;-66
2021/01/27 01:27:31;;;;;;;17.00;10.82;;;0.80;82.90;;;;;;5089299;28;20115;-67
2021/01/27 01:29:57;;;;;;;17.67;11.38;;;0.70;82.80;;;;;;5084770;28;20072;-66
2021/01/27 01:32:25;;;;;;;18.73;11.50;;;0.70;82.80;;;;;;5073060;28;20020;-67
2021/01/27 01:34:53;;;;;;;19.67;11.68;;;0.80;83.40;;;;;;5087531;28;20393;-66
2021/01/27 01:37:19;;;;;;;19.92;11.43;;;0.70;82.50;;;;;;5089328;28;20085;-66
2021/01/27 01:39:44;;;;;;;19.67;11.68;;;0.50;83.00;;;;;;5082007;28;20062;-65
2021/01/27 01:42:10;;;;;;;27.98;12.18;;;0.30;83.60;;;;;;5075800;28;20028;-66
2021/01/27 01:44:35;;;;;;;21.88;11.90;;;0.40;84.20;;;;;;5078734;28;20025;-66
2021/01/27 01:47:01;;;;;;;18.65;11.20;;;0.30;84.00;;;;;;5090601;28;20048;-67
2021/01/27 01:49:27;;;;;;;18.10;11.52;;;0.10;83.70;;;;;;5079700;28;20035;-66
2021/01/27 01:51:58;;;;;;;22.52;12.40;;;0.00;84.10;;;;;;5072399;28;20535;-67
2021/01/27 01:54:26;;;;;;;21.33;12.80;;;0.00;84.30;;;;;;5087378;28;20385;-66
2021/01/27 01:57:11;;;;;;;18.58;11.07;;;-3276.70;84.80;;;;;;5072743;28;20032;-66
2021/01/27 01:59:39;;;;;;;19.38;11.27;;;-3276.60;85.30;;;;;;5086326;28;20052;-67
2021/01/27 02:02:07;;;;;;;23.63;13.05;;;-3276.60;85.80;;;;;;5084411;28;20020;-66
2021/01/27 02:04:51;;;;;;;21.90;11.80;;;-3276.70;85.50;;;;;;5072154;28;20031;-66
2021/01/27 02:07:17;;;;;;;22.42;12.63;;;-3276.60;85.50;;;;;;5061734;28;20028;-66
2021/01/27 02:09:43;;;;;;;20.98;11.60;;;-3276.70;86.00;;;;;;5084710;28;20040;-66
2021/01/27 02:12:38;;;;;;;23.45;12.55;;;-3276.50;85.50;;;;;;5075224;28;20020;-66
2021/01/27 02:15:18;;;;;;;22.85;12.30;;;-3276.50;85.80;;;;;;5076419;28;20108;-66
2021/01/27 02:18:10;;;;;;;21.17;12.05;;;-3276.50;85.60;;;;;;5084842;28;20036;-66
2021/01/27 02:20:59;;;;;;;24.05;13.35;;;-3276.50;85.60;;;;;;5096959;22;20036;-68
2021/01/27 02:23:49;;;;;;;21.65;12.77;;;-3276.50;85.80;;;;;;5065590;28;20471;-68
2021/01/27 02:26:23;;;;;;;18.83;10.98;;;-3276.60;85.80;;;;;;5100416;28;20027;-71
2021/01/27 02:29:07;;;;;;;20.20;11.65;;;-3276.60;85.20;;;;;;5092534;28;20031;-68
2021/01/27 02:31:57;;;;;;;19.77;10.68;;;-3276.70;85.20;;;;;;5088148;28;20020;-68
2021/01/27 02:35:00;;;;;;;24.20;12.13;;;-3276.70;85.00;;;;;;5087135;28;20023;-68
2021/01/27 02:37:49;;;;;;;18.52;11.18;;;0.00;84.80;;;;;;5083876;28;20023;-70
2021/01/27 02:40:34;;;;;;;22.20;11.80;;;0.00;84.60;;;;;;5066508;28;20031;-68
2021/01/27 02:43:13;;;;;;;22.85;12.25;;;0.00;84.70;;;;;;5099456;28;20477;-68
2021/01/27 02:45:44;;;;;;;17.90;10.85;;;0.00;84.60;;;;;;5081909;28;20106;-70
2021/01/27 02:48:13;;;;;;;18.25;10.95;;;0.00;84.40;;;;;;5100989;28;20042;-69
2021/01/27 02:50:42;;;;;;;17.58;10.90;;;0.10;84.60;;;;;;5090532;28;20031;-69
2021/01/27 02:53:17;;;;;;;20.50;11.38;;;0.10;84.90;;;;;;5095874;28;20377;-69
2021/01/27 02:56:08;;;;;;;19.60;11.07;;;0.20;84.50;;;;;;5104436;28;20535;-69
2021/01/27 02:59:01;;;;;;;18.35;10.57;;;0.30;84.30;;;;;;5089313;28;20028;-69
2021/01/27 03:01:54;;;;;;;19.67;10.70;;;0.40;83.60;;;;;;5083659;28;20020;-69
2021/01/27 03:04:30;;;;;;;16.10;10.40;;;0.50;83.80;;;;;;5081034;28;20028;-69
2021/01/27 03:06:57;;;;;;;18.92;10.80;;;0.60;83.20;;;;;;5108726;28;20426;-69
2021/01/27 03:09:39;;;;;;;19.88;10.23;;;0.70;83.40;;;;;;5097410;28;20417;-69
2021/01/27 03:12:05;;;;;;;16.60;10.63;;;0.70;83.10;;;;;;5101006;28;20054;-69
2021/01/27 03:14:31;;;;;;;16.70;9.73;;;0.60;83.10;;;;;;5106711;28;20023;-69
2021/01/27 03:17:03;;;;;;;16.38;10.25;;;0.60;83.40;;;;;;5095766;28;20362;-69
2021/01/27 03:19:40;;;;;;;21.30;10.10;;;0.60;83.40;;;;;;5106498;28;20401;-70
2021/01/27 03:22:33;;;;;;;19.88;11.50;;;0.60;83.40;;;;;;5107953;28;20427;-69
2021/01/27 03:25:08;;;;;;;20.58;11.10;;;0.60;83.90;;;;;;5084078;28;20063;-69
2021/01/27 03:27:39;;;;;;;15.32;9.57;;;0.60;83.80;;;;;;5104674;28;20500;-68
2021/01/27 03:30:10;;;;;;;19.35;11.38;;;0.70;83.40;;;;;;5102959;28;20030;-71
2021/01/27 03:32:49;;;;;;;19.75;10.35;;;0.80;83.30;;;;;;5096590;28;20028;-71
2021/01/27 03:35:29;;;;;;;17.55;10.13;;;0.80;83.00;;;;;;5079550;28;20017;-68
2021/01/27 03:38:07;;;;;;;16.58;10.23;;;0.80;83.10;;;;;;5101341;28;20110;-68
2021/01/27 03:40:34;;;;;;;18.27;11.02;;;0.80;83.00;;;;;;5096819;28;20074;-68
2021/01/27 03:43:23;;;;;;;16.73;9.55;;;0.80;82.90;;;;;;5091740;28;20061;-68
2021/01/27 03:45:55;;;;;;;19.38;10.48;;;0.80;82.80;;;;;;5082478;28;20027;-68
2021/01/27 03:48:30;;;;;;;17.23;10.60;;;0.70;82.80;;;;;;5098437;28;20046;-71
2021/01/27 03:51:01;;;;;;;21.42;11.70;;;0.80;83.40;;;;;;5108479;28;20094;-71
2021/01/27 03:53:28;;;;;;;17.38;11.07;;;0.80;83.30;;;;;;5097447;28;20051;-71
2021/01/27 03:56:00;;;;;;;17.35;10.70;;;0.70;83.10;;;;;;5102231;28;20032;-69
2021/01/27 03:58:41;;;;;;;17.00;10.75;;;0.50;83.50;;;;;;5095327;28;20028;-69
2021/01/27 04:01:12;;;;;;;22.23;12.23;;;0.50;83.80;;;;;;5094176;28;20028;-68
2021/01/27 04:03:40;;;;;;;21.65;12.50;;;0.40;84.10;;;;;;5086528;28;20043;-68
2021/01/27 04:06:07;;;;;;;21.95;11.63;;;0.30;84.40;;;;;;5102764;28;20049;-68
2021/01/27 04:08:34;;;;;;;20.08;12.15;;;0.30;84.40;;;;;;5078362;28;20066;-68
2021/01/27 04:11:00;;;;;;;20.65;11.57;;;0.30;84.90;;;;;;5108187;28;20020;-69
2021/01/27 04:13:27;;;;;;;22.13;12.48;;;0.30;84.60;;;;;;5097163;28;20024;-69
2021/01/27 04:15:53;;;;;;;19.30;11.43;;;0.30;84.50;;;;;;5102242;28;20023;-69
2021/01/27 04:18:19;;;;;;;21.23;11.98;;;0.40;84.30;;;;;;5086290;28;20024;-69
2021/01/27 04:20:45;;;;;;;222.30;97.88;;;0.30;84.30;;;;;;5084907;28;20035;-70
2021/01/27 04:23:11;;;;;;;24.88;12.55;;;0.40;84.50;;;;;;5078176;28;20080;-70
2021/01/27 04:25:36;;;;;;;16.23;11.05;;;0.40;84.00;;;;;;5086042;28;20123;-69
2021/01/27 04:28:03;;;;;;;19.27;11.05;;;0.60;84.10;;;;;;5091999;28;20436;-69
2021/01/27 04:30:31;;;;;;;16.95;10.82;;;0.70;83.30;;;;;;5105842;28;20023;-70
2021/01/27 04:32:58;;;;;;;17.92;10.38;;;0.80;83.00;;;;;;5078260;28;20473;-70
2021/01/27 04:35:24;;;;;;;17.42;9.98;;;0.80;82.70;;;;;;5111596;28;20030;-70
2021/01/27 04:37:50;;;;;;;65.43;30.67;;;0.80;82.40;;;;;;5106337;28;20416;-70
2021/01/27 04:40:24;;;;;;;25.33;13.80;;;0.90;82.70;;;;;;5087558;28;20024;-70
2021/01/27 04:42:50;;;;;;;17.08;10.50;;;0.90;82.60;;;;;;5093771;28;20081;-69
2021/01/27 04:45:17;;;;;;;18.10;10.75;;;0.90;82.50;;;;;;5099680;28;20431;-69
2021/01/27 04:48:08;;;;;;;16.75;9.73;;;0.80;82.20;;;;;;5106994;28;20031;-70
2021/01/27 04:50:46;;;;;;;18.65;10.88;;;0.90;82.10;;;;;;5091894;28;20031;-69
2021/01/27 04:53:30;;;;;;;15.65;10.25;;;0.80;82.30;;;;;;5064333;28;20541;-68
2021/01/27 04:56:02;;;;;;;18.58;10.80;;;0.80;82.10;;;;;;5106001;28;20024;-68
2021/01/27 04:58:55;;;;;;;19.33;11.05;;;0.80;82.00;;;;;;5109338;28;20028;-69
2021/01/27 05:01:37;;;;;;;17.42;11.50;;;0.70;82.10;;;;;;5085070;28;20061;-69
2021/01/27 05:04:18;;;;;;;18.77;10.48;;;0.80;82.50;;;;;;5104159;28;20024;-68
2021/01/27 05:06:47;;;;;;;21.90;11.45;;;0.80;82.20;;;;;;5111640;28;20111;-68
2021/01/27 05:09:30;;;;;;;23.38;11.98;;;0.80;82.30;;;;;;5082638;28;20545;-68
2021/01/27 05:11:59;;;;;;;17.45;10.15;;;0.80;82.60;;;;;;5087924;28;20025;-71
2021/01/27 05:14:25;;;;;;;19.98;11.20;;;0.90;82.50;;;;;;5108975;28;20043;-69
2021/01/27 05:16:52;;;;;;;15.60;11.05;;;0.90;82.00;;;;;;5097812;28;20035;-70
2021/01/27 05:19:18;;;;;;;18.52;10.68;;;0.80;81.80;;;;;;5109907;28;20028;-69
2021/01/27 05:21:53;;;;;;;19.17;11.25;;;0.80;82.20;;;;;;5089735;28;20446;-70
2021/01/27 05:24:19;;;;;;;17.05;9.95;;;0.80;82.10;;;;;;5101743;28;20058;-69
2021/01/27 05:27:03;;;;;;;15.23;10.02;;;0.80;82.40;;;;;;5110886;28;20077;-69
2021/01/27 05:29:42;;;;;;;17.67;9.93;;;0.90;82.70;;;;;;5086327;28;20023;-70
2021/01/27 05:32:09;;;;;;;17.35;10.23;;;0.90;82.30;;;;;;5102740;28;20027;-69
2021/01/27 05:34:37;;;;;;;16.23;10.55;;;0.90;82.20;;;;;;5107287;28;20022;-70
2021/01/27 05:37:08;;;;;;;14.13;9.60;;;0.90;82.60;;;;;;5110693;28;20136;-70
2021/01/27 05:39:34;;;;;;;;;;;1.00;82.10;;;;;;5083300;28;20036;-70
2021/01/27 05:42:20;;;;;;;17.15;10.52;;;0.80;82.30;;;;;;5108106;28;19915;-70
2021/01/27 05:44:46;;;;;;;15.82;10.05;;;0.80;82.20;;;;;;5095925;28;20095;-70
2021/01/27 05:47:20;;;;;;;16.55;10.93;;;0.80;82.30;;;;;;5091676;28;20131;-70
2021/01/27 05:49:48;;;;;;;19.08;10.77;;;0.80;82.60;;;;;;5084383;28;20062;-70
2021/01/27 05:52:17;;;;;;;20.40;11.73;;;0.80;82.70;;;;;;5101938;28;20019;-71
2021/01/27 05:54:45;;;;;;;17.48;10.70;;;0.90;82.90;;;;;;5090939;28;20031;-70
2021/01/27 05:57:21;;;;;;;17.60;10.68;;;1.00;82.50;;;;;;5080741;28;20012;-70
2021/01/27 05:59:50;;;;;;;20.15;12.20;;;1.00;82.20;;;;;;5095685;28;20016;-70
2021/01/27 06:02:16;;;;;;;17.20;10.68;;;1.00;82.70;;;;;;5093401;28;20499;-70
2021/01/27 06:04:56;;;;;;;18.40;11.38;;;1.00;82.40;;;;;;5093692;28;20016;-70
2021/01/27 06:07:26;;;;;;;16.38;10.90;;;1.10;82.40;;;;;;5065055;28;20019;-70
2021/01/27 06:09:55;;;;;;;18.98;11.05;;;1.20;82.50;;;;;;5104420;28;20610;-70
2021/01/27 06:12:21;;;;;;;18.95;12.02;;;1.30;82.10;;;;;;5088744;28;20039;-71
2021/01/27 06:15:06;;;;;;;17.83;11.85;;;1.30;82.10;;;;;;5078512;28;20017;-70
2021/01/27 06:17:46;;;;;;;16.38;10.82;;;1.20;82.30;;;;;;5106502;28;20032;-68
2021/01/27 06:20:15;;;;;;;16.63;10.48;;;1.10;81.80;;;;;;5082472;28;20035;-69
2021/01/27 06:22:40;;;;;;;19.92;11.77;;;1.00;81.90;;;;;;5074795;28;20032;-69
2021/01/27 06:25:23;;;;;;;17.88;11.30;;;0.90;82.00;;;;;;5092730;28;20393;-69
2021/01/27 06:28:15;;;;;;;17.77;11.13;;;0.90;82.20;;;;;;5083174;28;20119;-69
2021/01/27 06:30:48;;;;;;;19.58;11.43;;;0.90;82.50;;;;;;5078696;28;20674;-69
2021/01/27 06:33:41;;;;;;;19.50;10.77;;;0.90;82.50;;;;;;5080929;28;20103;-69
2021/01/27 06:36:45;;;;;;;17.27;11.77;;;0.90;82.80;;;;;;5108970;28;20049;-69
2021/01/27 06:39:49;;;;;;;21.52;12.65;;;1.00;82.90;;;;;;5079277;28;20136;-70
2021/01/27 06:42:26;;;;;;;20.45;12.80;;;1.00;82.90;;;;;;5107670;28;20159;-69
2021/01/27 06:45:14;;;;;;;24.00;12.88;;;0.90;83.40;;;;;;5097319;28;20051;-68
2021/01/27 06:48:10;;;;;;;22.88;13.02;;;0.90;83.70;;;;;;5126246;28;20055;-68
2021/01/27 06:50:43;;;;;;;27.05;13.75;;;0.90;84.00;;;;;;5110031;28;20028;-68
2021/01/27 06:53:16;;;;;;;22.25;12.93;;;1.00;84.20;;;;;;5105976;28;20019;-69
2021/01/27 06:55:48;;;;;;;18.95;12.80;;;1.20;83.50;;;;;;5086921;28;20032;-70
2021/01/27 06:58:43;;;;;;;22.15;12.73;;;1.20;83.20;;;;;;5104986;28;20047;-70
2021/01/27 07:01:46;;;;;;;17.13;12.02;;;1.30;82.90;;;;;;5092574;28;20032;-71
2021/01/27 07:04:23;;;;;;;21.77;12.80;;;1.40;82.40;;;;;;5074856;28;20401;-70
2021/01/27 07:06:55;;;;;;;18.02;12.00;;;1.50;82.40;;;;;;5073874;28;20030;-69
2021/01/27 07:09:44;;;;;;;;;;;1.50;82.40;;;;;;5079855;28;20041;-71
2021/01/27 07:12:36;;;;;;;21.65;13.05;;;1.50;82.10;;;;;;5100959;28;19983;-70
2021/01/27 07:15:17;;;;;;;21.38;13.18;;;1.50;82.00;;;;;;5109077;28;20545;-70
2021/01/27 07:18:01;;;;;;;19.80;12.13;;;1.60;82.30;;;;;;5072596;28;20024;-70
2021/01/27 07:20:46;;;;;;;19.35;12.50;;;1.60;82.00;;;;;;5081636;28;20497;-70
2021/01/27 07:23:52;;;;;;;22.27;12.88;;;1.60;82.00;;;;;;5079457;28;20028;-69
2021/01/27 07:26:25;;;;;;;18.52;12.45;;;1.70;81.90;;;;;;5099443;28;20032;-71
2021/01/27 07:29:05;;;;;;;24.17;16.05;;;1.70;81.80;;;;;;5090596;28;20027;-71
2021/01/27 07:31:39;;;;;;;19.13;13.30;;;1.70;81.80;;;;;;5080427;28;20027;-72
2021/01/27 07:34:26;;;;;;;23.63;13.07;;;1.80;82.10;;;;;;5084992;28;20022;-73
2021/01/27 07:37:21;;;;;;;20.90;13.10;;;1.70;81.80;;;;;;5093684;28;20064;-74
2021/01/27 07:40:05;;;;;;;18.88;13.15;;;1.70;81.40;;;;;;5103860;28;20439;-72
2021/01/27 07:43:05;;;;;;;20.30;13.07;;;1.70;82.10;;;;;;5083367;28;20122;-74
2021/01/27 07:45:36;;;;;;;22.00;12.95;;;1.80;81.90;;;;;;5067734;28;20119;-76
2021/01/27 07:48:38;;;;;;;22.73;13.70;;;1.80;81.70;;;;;;5100928;28;20484;-68
2021/01/27 07:51:22;;;;;;;20.23;13.18;;;1.90;82.20;;;;;;5090119;28;20478;-71
2021/01/27 07:54:13;;;;;;;18.85;13.02;;;2.00;81.00;;;;;;5103401;28;20035;-71
2021/01/27 07:56:58;;;;;;;21.42;13.05;;;2.00;81.20;;;;;;5106475;28;20489;-71
2021/01/27 07:59:31;;;;;;;18.38;12.38;;;2.00;80.90;;;;;;5080967;28;20103;-70
2021/01/27 08:02:04;;;;;;;18.67;12.98;;;2.00;80.50;;;;;;5100700;28;20024;-71
2021/01/27 08:04:43;;;;;;;23.88;14.25;;;2.00;80.60;;;;;;5088478;28;20077;-71
2021/01/27 08:07:37;;;;;;;22.65;13.70;;;2.00;80.60;;;;;;5077166;28;20622;-72
2021/01/27 08:10:12;;;;;;;24.33;13.50;;;2.00;80.40;;;;;;5104814;28;20369;-71
2021/01/27 08:12:42;;;;;;;21.23;14.57;;;2.00;80.30;;;;;;5093513;28;20028;-70
2021/01/27 08:15:25;;;;;;;19.95;13.32;;;2.10;80.50;;;;;;5099177;28;20530;-72
2021/01/27 08:17:59;;;;;;;20.55;13.93;;;2.20;80.20;;;;;;5088603;28;20032;-70
2021/01/27 08:23:02;;;;;;;59.80;31.17;;;2.20;80.20;;;;;;5093313;28;20101;-77
2021/01/27 08:25:46;;;;;;;45.05;27.60;;;2.30;80.10;;;;;;5095080;28;20020;-70
2021/01/27 08:28:26;;;;;;;33.33;21.13;;;2.30;79.90;;;;;;5076956;28;20035;-73
2021/01/27 08:31:12;;;;;;;71.97;36.33;;;2.30;80.20;;;;;;5095122;28;20020;-74
2021/01/27 08:33:54;;;;;;;123.40;52.17;;;2.40;79.90;;;;;;5095278;28;20032;-78
2021/01/27 08:36:21;;;;;;;66.78;30.15;;;2.40;80.20;;;;;;5095103;28;20508;-73
2021/01/27 08:39:06;;;;;;;41.55;23.17;;;2.30;79.60;;;;;;5094839;28;20028;-73
2021/01/27 08:41:53;;;;;;;37.38;20.10;;;2.30;79.30;;;;;;5079697;28;20478;-77
2021/01/27 08:44:19;;;;;;;59.03;26.88;;;2.30;79.90;;;;;;5095032;28;20392;-72
2021/01/27 08:46:51;;;;;;;48.88;23.95;;;2.40;79.50;;;;;;5095242;28;20103;-72
2021/01/27 08:49:42;;;;;;;46.47;23.60;;;2.40;79.50;;;;;;5061724;28;20516;-74
2021/01/27 08:52:11;;;;;;;55.03;25.77;;;2.50;79.00;;;;;;5075957;28;20501;-71
2021/01/27 08:54:39;;;;;;;82.60;36.50;;;2.40;79.00;;;;;;5094825;28;20250;-70
2021/01/27 08:57:23;;;;;;;112.55;44.08;;;2.50;79.20;;;;;;5076311;28;20035;-71
2021/01/27 08:59:59;;;;;;;64.95;30.95;;;2.50;79.60;;;;;;5087443;28;20089;-72
2021/01/27 09:02:41;;;;;;;33.95;16.90;;;2.40;79.10;;;;;;5094104;28;20024;-74
2021/01/27 09:05:27;;;;;;;58.90;28.42;;;2.50;78.70;;;;;;5094590;28;20049;-74
2021/01/27 09:07:58;;;;;;;35.65;18.25;;;2.60;79.40;;;;;;5068916;28;20131;-71
2021/01/27 09:10:34;;;;;;;15.27;9.37;;;2.60;78.40;;;;;;5094473;28;20020;-74
2021/01/27 09:13:19;;;;;;;43.85;21.58;;;2.70;78.30;;;;;;5094516;28;20017;-70
2021/01/27 09:15:50;;;;;;;30.92;16.25;;;2.80;78.30;;;;;;5094398;28;20024;-72
2021/01/27 09:18:16;;;;;;;18.60;11.90;;;2.80;77.60;;;;;;5094279;28;20085;-70
2021/01/27 09:20:41;;;;;;;23.77;13.63;;;2.90;77.30;;;;;;5094487;28;20036;-70
2021/01/27 09:23:08;;;;;;;26.70;13.73;;;3.00;77.00;;;;;;5076577;28;20028;-71
2021/01/27 09:25:41;;;;;;;26.50;16.10;;;3.10;76.50;;;;;;5094254;28;20028;-67
2021/01/27 09:28:08;;;;;;;44.90;22.55;;;3.10;76.40;;;;;;5093925;28;20032;-71
2021/01/27 09:30:35;;;;;;;16.08;10.77;;;3.20;77.00;;;;;;5094046;28;20058;-72
2021/01/27 09:33:26;;;;;;;24.98;13.90;;;3.20;75.70;;;;;;5094175;28;20024;-70
2021/01/27 09:36:20;;;;;;;22.00;12.30;;;3.30;75.60;;;;;;5088757;28;20026;-71
2021/01/27 09:38:50;;;;;;;16.17;10.30;;;3.30;75.10;;;;;;5093847;28;20028;-75
2021/01/27 09:41:21;;;;;;;22.27;13.57;;;3.20;75.20;;;;;;5093997;28;20028;-71
2021/01/27 09:43:47;;;;;;;;;;;3.30;75.40;;;;;;5081637;28;20032;-70
2021/01/27 09:46:40;;;;;;;19.25;11.77;;;3.40;75.10;;;;;;5083142;28;19943;-72
2021/01/27 09:49:10;;;;;;;25.10;14.30;;;3.60;74.60;;;;;;5090567;28;20043;-71
2021/01/27 09:51:37;;;;;;;18.75;12.55;;;3.70;74.30;;;;;;5092906;28;20099;-72
2021/01/27 09:54:04;;;;;;;21.17;12.77;;;3.80;73.80;;;;;;5083380;28;20640;-71
2021/01/27 09:56:31;;;;;;;15.05;10.73;;;4.00;73.50;;;;;;5080671;28;20035;-69
2021/01/27 09:58:59;;;;;;;18.80;11.43;;;4.00;72.80;;;;;;5093638;28;20077;-70
2021/01/27 10:01:27;;;;;;;21.80;12.65;;;4.20;72.60;;;;;;5093680;28;20515;-70
2021/01/27 10:04:10;;;;;;;22.15;13.27;;;4.30;72.00;;;;;;5093638;28;20020;-70
2021/01/27 10:06:52;;;;;;;18.70;11.85;;;4.40;71.40;;;;;;5087297;28;20442;-70
2021/01/27 10:09:31;;;;;;;13.90;10.32;;;4.60;71.00;;;;;;5090638;28;20067;-71
2021/01/27 10:12:19;;;;;;;18.17;10.55;;;4.70;69.30;;;;;;5093229;28;20016;-72
2021/01/27 10:14:55;;;;;;;14.02;10.25;;;4.80;69.80;;;;;;5078541;28;20520;-75
2021/01/27 10:17:26;;;;;;;19.02;11.77;;;4.80;69.70;;;;;;5089995;28;20020;-74
2021/01/27 10:20:20;;;;;;;15.43;10.40;;;4.80;69.40;;;;;;5093711;28;20016;-73
2021/01/27 10:22:57;;;;;;;14.00;9.50;;;4.90;68.80;;;;;;5074374;28;20513;-74
2021/01/27 10:25:27;;;;;;;11.05;8.30;;;5.00;68.90;;;;;;5092923;28;20077;-71
2021/01/27 10:28:19;;;;;;;13.27;9.35;;;5.20;67.10;;;;;;5092832;28;20048;-70
2021/01/27 10:30:55;;;;;;;12.18;8.65;;;5.30;65.80;;;;;;5092424;28;20043;-72
2021/01/27 10:33:41;;;;;;;12.88;8.77;;;5.10;66.30;;;;;;5059796;28;20442;-71
2021/01/27 10:36:39;;;;;;;15.57;9.38;;;5.50;67.00;;;;;;5092318;28;20026;-70
2021/01/27 10:39:23;;;;;;;16.10;9.50;;;5.50;66.10;;;;;;5087455;28;20040;-70
2021/01/27 10:41:54;;;;;;;11.98;7.90;;;5.70;65.00;;;;;;5092429;28;20023;-68
2021/01/27 10:44:32;;;;;;;15.25;9.45;;;5.50;64.60;;;;;;5092416;28;20042;-73
2021/01/27 10:47:07;;;;;;;20.35;8.15;;;5.40;65.40;;;;;;5089571;28;20042;-69
2021/01/27 10:49:39;;;;;;;9.50;7.70;;;5.60;65.10;;;;;;5091107;28;20071;-71
2021/01/27 10:52:07;;;;;;;12.65;7.80;;;5.70;64.40;;;;;;5088686;28;20027;-70
2021/01/27 10:54:33;;;;;;;13.15;8.02;;;6.00;64.00;;;;;;5086669;28;20024;-72
2021/01/27 10:56:59;;;;;;;11.90;8.00;;;6.10;63.80;;;;;;5090940;28;20027;-71
2021/01/27 10:59:25;;;;;;;9.20;6.47;;;6.40;62.80;;;;;;5091801;28;20063;-72
2021/01/27 11:01:54;;;;;;;7.80;6.22;;;6.70;61.20;;;;;;5091935;28;20074;-72
2021/01/27 11:04:19;;;;;;;12.88;6.18;;;7.00;59.90;;;;;;5091963;28;20027;-73
2021/01/27 11:06:45;;;;;;;11.70;6.82;;;7.00;58.70;;;;;;5090966;28;20028;-72
2021/01/27 11:09:12;;;;;;;17.05;7.22;;;6.80;59.70;;;;;;5057054;28;20031;-72
2021/01/27 11:11:37;;;;;;;18.15;6.97;;;6.30;59.70;;;;;;5091332;28;20024;-73
2021/01/27 11:14:04;;;;;;;8.75;5.78;;;6.00;60.60;;;;;;5091635;28;20024;-73
2021/01/27 11:16:30;;;;;;;9.60;6.20;;;5.80;61.30;;;;;;5089860;28;20024;-74
2021/01/27 11:18:55;;;;;;;8.35;5.63;;;5.80;61.50;;;;;;5089633;28;20433;-73
2021/01/27 11:21:21;;;;;;;8.68;5.82;;;5.70;59.70;;;;;;5090068;28;20157;-72
2021/01/27 11:23:46;;;;;;;9.80;5.80;;;5.60;60.80;;;;;;5074506;28;20028;-71
2021/01/27 11:26:18;;;;;;;8.68;5.13;;;5.60;60.40;;;;;;5085891;28;20059;-70
2021/01/27 11:28:45;;;;;;;8.20;5.40;;;5.30;59.80;;;;;;5091609;28;20024;-73
2021/01/27 11:31:11;;;;;;;6.50;4.95;;;5.20;59.40;;;;;;5079803;28;20098;-71
2021/01/27 11:33:37;;;;;;;9.23;5.10;;;5.10;61.40;;;;;;5057146;28;20070;-72
2021/01/27 11:36:04;;;;;;;17.77;6.88;;;4.90;60.20;;;;;;5081013;28;20024;-70
2021/01/27 11:38:30;;;;;;;11.98;5.65;;;4.80;62.40;;;;;;5091219;28;20098;-73
2021/01/27 11:40:56;;;;;;;6.10;3.97;;;4.70;60.60;;;;;;5091716;28;20497;-73
2021/01/27 11:43:21;;;;;;;8.48;5.60;;;4.60;61.10;;;;;;5074233;28;20031;-71
2021/01/27 11:45:47;;;;;;;10.95;4.47;;;4.70;61.70;;;;;;5090948;28;20116;-70
2021/01/27 11:48:12;;;;;;;10.35;4.70;;;4.60;60.70;;;;;;5091642;28;20393;-74
2021/01/27 11:50:38;;;;;;;10.40;4.35;;;4.50;61.90;;;;;;5089883;28;20043;-73
2021/01/27 11:53:03;;;;;;;6.43;4.38;;;4.50;61.40;;;;;;5091741;28;20385;-77
2021/01/27 11:55:29;;;;;;;6.55;4.22;;;4.50;61.50;;;;;;5091656;28;20111;-74
2021/01/27 11:57:55;;;;;;;14.90;5.80;;;4.30;60.50;;;;;;5083635;28;20020;-68
2021/01/27 12:00:23;;;;;;;9.50;4.68;;;4.30;62.40;;;;;;5090753;28;20028;-72
2021/01/27 12:02:49;;;;;;;7.68;4.20;;;4.30;62.70;;;;;;5089402;28;20023;-73
2021/01/27 12:05:16;;;;;;;7.45;3.83;;;4.20;61.90;;;;;;5090982;28;20107;-72
2021/01/27 12:07:42;;;;;;;8.75;5.68;;;4.20;61.10;;;;;;5090939;28;20532;-71
2021/01/27 12:10:08;;;;;;;7.63;4.85;;;4.20;62.20;;;;;;5091501;28;20028;-71
2021/01/27 12:12:34;;;;;;;7.43;4.18;;;4.10;61.40;;;;;;5078430;28;20722;-71
2021/01/27 12:15:02;;;;;;;16.30;5.53;;;4.10;61.10;;;;;;5091638;28;20028;-71
2021/01/27 12:17:28;;;;;;;9.57;5.18;;;4.10;63.30;;;;;;5091089;28;20035;-72
2021/01/27 12:19:54;;;;;;;84.40;40.80;;;4.10;62.80;;;;;;5091776;28;20103;-74
2021/01/27 12:22:19;;;;;;;26.98;13.23;;;4.20;63.00;;;;;;5091163;28;20062;-70
2021/01/27 12:24:45;;;;;;;8.48;4.53;;;4.20;62.20;;;;;;5076978;28;20032;-75
2021/01/27 12:27:10;;;;;;;12.02;6.45;;;4.20;61.50;;;;;;5073785;28;20120;-75
2021/01/27 12:29:36;;;;;;;26.85;12.60;;;4.10;62.40;;;;;;5091140;28;20067;-73
2021/01/27 12:32:02;;;;;;;18.90;7.95;;;4.10;63.60;;;;;;5091745;28;20319;-70
2021/01/27 12:34:27;;;;;;;24.25;11.75;;;4.20;63.70;;;;;;5082910;28;20016;-73
2021/01/27 12:36:53;;;;;;;22.40;12.00;;;4.20;62.20;;;;;;5089649;28;20024;-71
2021/01/27 12:39:21;;;;;;;25.55;12.10;;;4.40;63.40;;;;;;5089962;28;20016;-70
2021/01/27 12:41:49;;;;;;;21.92;11.43;;;4.60;63.40;;;;;;5090235;28;20043;-72
2021/01/27 12:44:14;;;;;;;17.67;8.30;;;4.90;62.90;;;;;;5079635;28;20024;-71
2021/01/27 12:46:40;;;;;;;15.52;8.30;;;5.00;60.30;;;;;;5089793;28;20039;-71
2021/01/27 12:49:06;;;;;;;12.38;6.90;;;5.10;61.00;;;;;;5090038;28;20023;-72
2021/01/27 12:51:32;;;;;;;28.23;12.68;;;5.20;61.00;;;;;;5088750;28;20045;-70
2021/01/27 12:53:58;;;;;;;10.10;4.22;;;5.20;60.40;;;;;;5091834;28;20055;-71
2021/01/27 12:56:23;;;;;;;5.78;3.88;;;5.40;59.60;;;;;;5093762;28;20016;-70
2021/01/27 12:58:49;;;;;;;6.13;3.70;;;5.40;59.10;;;;;;5093790;28;20055;-71
2021/01/27 13:01:18;;;;;;;12.38;7.43;;;5.60;58.10;;;;;;5093493;28;20031;-72
2021/01/27 13:03:43;;;;;;;22.45;10.63;;;5.80;58.20;;;;;;5095286;28;20111;-76
2021/01/27 13:06:09;;;;;;;57.55;29.92;;;5.90;58.00;;;;;;5095320;28;20107;-77
2021/01/27 13:08:35;;;;;;;28.48;13.35;;;5.80;57.20;;;;;;5095222;28;20032;-76
2021/01/27 13:11:00;;;;;;;9.98;6.43;;;5.70;58.00;;;;;;5095215;28;20028;-72
2021/01/27 13:13:26;;;;;;;15.38;8.88;;;5.70;57.60;;;;;;5095238;28;20029;-74